Flight Track Log - Related Links

Times and Time Zones

All times are in EDT time to prevent confusion due to time zone crossing. See the SWA1044 flight status page for this flight to view local times or setup timezone preferences in your user account.

Time Position Orientation Groundspeed Altitude Reporting Facility
EDT Latitude Longitude Course Direction KTS MPH feet Rate Location/Type
Sat 06:09:04 PM 41.9956 -72.7947 304° West 206 237 4,000  Level Boston Center
Sat 06:10:04 PM 41.9744 -72.8897 253° West 217 250 4,400 2,667 Climbing Boston Center
Sat 06:12:04 PM 41.9419 -73.1044 259° West 288 331 12,000 3,667 Climbing Boston Center
Sat 06:13:04 PM 41.9247 -73.2158 258° West 329 379 15,400 3,250 Climbing Boston Center
Sat 06:14:04 PM 41.8819 -73.3519 247° West 356 410 18,500 2,550 Climbing Boston Center
Sat 06:15:04 PM 41.8289 -73.4653 238° Southwest 375 432 20,500 2,550 Climbing Boston Center
Sat 06:16:04 PM 41.7361 -73.5639 218° Southwest 404 465 23,600 2,446 Climbing Boston Center
Sat 06:17:41 PM 41.5644 -73.7128 213° Southwest 429 494 26,900 2,064 Climbing New York Center
Sat 06:18:41 PM 41.4578 -73.8133 215° Southwest 450 518 29,000 1,550 Climbing New York Center
Sat 06:19:41 PM 41.3489 -73.9078 213° Southwest 467 537 30,000 446 Climbing New York Center
Sat 06:20:42 PM 41.2403 -74.0050 214° Southwest 478 550 29,900  Descending New York Center
Sat 06:21:42 PM 41.1333 -74.1017 214° Southwest 478 550 30,000 -450 Climbing New York Center
Sat 06:22:42 PM 41.0308 -74.1928 214° Southwest 466 536 29,000 -1,000 Descending New York Center
Sat 06:23:42 PM 40.9219 -74.2833 212° Southwest 473 544 28,000 -504 Descending New York Center
Sat 06:24:41 PM 40.8169 -74.3739 213° Southwest 468 539 28,000  Level New York Center
Sat 06:25:41 PM 40.7322 -74.4900 226° Southwest 455 524 28,000  Level New York Center
Sat 06:26:43 PM 40.6572 -74.6228 233° Southwest 446 513 28,000  Level New York Center
Sat 06:27:41 PM 40.5758 -74.7492 230° Southwest 451 519 28,000  Level New York Center
Sat 06:28:41 PM 40.4903 -74.8753 228° Southwest 462 532 28,000 -50 Level New York Center
Sat 06:29:42 PM 40.4092 -74.9878 227° Southwest 472 543 27,900 -1,041 Descending New York Center
Sat 06:30:42 PM 40.3258 -75.1050 227° Southwest 467 537 25,900 -2,441 Descending New York Center
Sat 06:31:40 PM 40.2486 -75.2172 228° Southwest 447 514 23,100 -2,773 Descending New York Center
Sat 06:32:41 PM 40.1692 -75.3289 227° Southwest 435 501 20,400 -2,550 Descending New York Center
Sat 06:33:40 PM 40.0769 -75.4478 225° Southwest 424 488 18,000 -1,210 Descending New York Center
Sat 06:34:40 PM 40.0042 -75.5511 227° Southwest 411 473 18,000  Level New York Center
Sat 06:35:41 PM 39.9333 -75.6492 227° Southwest 411 473 18,000  Level New York Center
Sat 06:36:40 PM 39.8633 -75.7769 235° Southwest 411 473 18,000 -1,642 Level New York Center
Sat 06:39:02 PM 39.7167 -76.0500 235° Southwest 356 410 12,500 -1,782 Descending Potomac TRACON
Sat 06:40:02 PM 39.6667 -76.1500 237° Southwest 309 356 12,000 -350 Descending Potomac TRACON
Sat 06:41:02 PM 39.6167 -76.2333 232° Southwest 305 351 11,800 -900 Descending Potomac TRACON
Sat 06:42:02 PM 39.5833 -76.3167 243° Southwest 285 328 10,200 -1,737 Descending Potomac TRACON
Sat 06:42:56 PM 39.5333 -76.3833 226° Southwest 283 326 8,500 -1,100 Descending Potomac TRACON
Sat 06:44:02 PM 39.4833 -76.5000 241° Southwest 296 341 8,000 -364 Descending Potomac TRACON
Sat 06:45:08 PM 39.4500 -76.5833 243° Southwest 292 336 7,700 -1,000 Descending Potomac TRACON
Sat 06:46:02 PM 39.4000 -76.6667 232° Southwest 287 330 6,000 -1,550 Descending Potomac TRACON
Sat 06:47:08 PM 39.3333 -76.7167 210° Southwest 265 305 4,600 -1,238 Descending Potomac TRACON
Sat 06:48:08 PM 39.2667 -76.7667 210° Southwest 246 283 3,400 -700 Descending Potomac TRACON
Sat 06:49:08 PM 39.2167 -76.8000 207° Southwest 181 208 3,200 -850 Descending Potomac TRACON
Sat 06:50:08 PM 39.1833 -76.7833 159° South 153 176 1,700 -1,211 Descending Potomac TRACON
Sat 06:51:02 PM 39.1833 -76.7333 90° East 132 152 900 -889 Descending Potomac TRACON
Sat 06:53:00 PM 39.1667 -76.6667 270° West  Level FlightAware Approximate
Sat 07:00:00 PM 39.1754 -76.6683 270° West  Level Estimated
Sat 07:01:00 PM 39.1754 -76.6683 270° West  Level Estimated
Sat 07:02:00 PM 39.1754 -76.6683 270° West  Level Estimated

Login

Don't have an account? Register now (free) for customized features, flight alerts, and more!